createdAt,value
2018-12-17T00:00:30.852Z,101442.14
2018-12-17T00:03:38.497Z,101439.61
2018-12-17T00:07:01.448Z,101435.36
2018-12-17T00:10:10.360Z,101440.48
2018-12-17T00:13:17.872Z,101437.05
2018-12-17T00:16:26.077Z,101434.47
2018-12-17T00:19:50.053Z,101435.33
2018-12-17T00:22:57.877Z,101437.93
2018-12-17T00:26:06.284Z,101438.36
2018-12-17T00:29:14.035Z,101439.22
2018-12-17T00:32:21.716Z,101442.22
2018-12-17T00:35:29.987Z,101443.90
2018-12-17T00:38:53.945Z,101443.48
2018-12-17T00:42:01.412Z,101441.77
2018-12-17T00:45:10.377Z,101442.60
2018-12-17T00:48:18.272Z,101450.68
2018-12-17T00:51:26.360Z,101449.84
2018-12-17T00:54:33.940Z,101445.12
2018-12-17T00:57:41.616Z,101454.44
2018-12-17T01:01:06.012Z,101449.83
2018-12-17T01:04:13.527Z,101457.04
2018-12-17T01:07:25.068Z,101451.89
2018-12-17T01:10:33.397Z,101457.06
2018-12-17T01:13:43.476Z,101460.95
2018-12-17T01:16:51.181Z,101463.94
2018-12-17T01:19:58.796Z,101461.44
2018-12-17T01:23:06.277Z,101459.73
2018-12-17T01:26:14.316Z,101470.41
2018-12-17T01:29:21.899Z,101472.02
2018-12-17T01:32:29.487Z,101468.58
2018-12-17T01:35:36.999Z,101465.61
2018-12-17T01:38:59.986Z,101475.48
2018-12-17T01:42:08.410Z,101470.38
2018-12-17T01:45:16.384Z,101478.08
2018-12-17T01:48:23.964Z,101474.63
2018-12-17T01:51:31.479Z,101484.89
2018-12-17T01:54:38.980Z,101480.63
2018-12-17T01:58:01.708Z,101489.58
2018-12-17T02:01:24.179Z,101489.14
2018-12-17T02:04:46.898Z,101482.72
2018-12-17T02:07:54.509Z,101486.55
2018-12-17T02:11:02.136Z,101489.48
2018-12-17T02:14:09.820Z,101490.36
2018-12-17T02:17:33.308Z,101496.31
2018-12-17T02:20:40.906Z,101493.33
2018-12-17T02:23:48.384Z,101495.05
2018-12-17T02:26:55.904Z,101499.36
2018-12-17T02:30:03.517Z,101509.25
2018-12-17T02:33:26.231Z,101501.87
2018-12-17T02:36:48.817Z,101501.93
2018-12-17T02:39:56.444Z,101509.14
2018-12-17T02:43:03.988Z,101507.84
2018-12-17T02:46:11.597Z,101507.08
2018-12-17T02:49:19.832Z,101501.50
2018-12-17T02:52:27.722Z,101510.02
2018-12-17T02:55:50.527Z,101507.55
2018-12-17T02:59:13.253Z,101516.53
2018-12-17T03:02:37.007Z,101510.92
2018-12-17T03:05:44.609Z,101521.59
2018-12-17T03:08:52.621Z,101525.09
2018-12-17T03:12:00.204Z,101525.91
2018-12-17T03:15:22.869Z,101524.56
2018-12-17T03:18:30.858Z,101528.39
2018-12-17T03:21:38.385Z,101531.34
2018-12-17T03:24:45.944Z,101542.02
2018-12-17T03:28:08.771Z,101533.89
2018-12-17T03:31:31.300Z,101538.52
2018-12-17T03:34:38.764Z,101535.47
2018-12-17T03:38:01.981Z,101541.08
2018-12-17T03:41:09.581Z,101548.84
2018-12-17T03:44:17.112Z,101549.22
2018-12-17T03:47:24.600Z,101557.41
2018-12-17T03:50:32.220Z,101560.75
2018-12-17T03:53:39.704Z,101556.14
2018-12-17T03:56:47.236Z,101545.02
2018-12-17T03:59:54.820Z,101547.23
2018-12-17T04:03:02.299Z,101551.11
2018-12-17T04:06:25.988Z,101554.12
2018-12-17T04:09:33.532Z,101566.97
2018-12-17T04:12:41.419Z,101565.25
2018-12-17T04:15:48.999Z,101558.80
2018-12-17T04:19:12.681Z,101560.06
2018-12-17T04:22:20.181Z,101569.06
2018-12-17T04:25:27.756Z,101568.97
2018-12-17T04:28:35.394Z,101574.12
2018-12-17T04:31:42.958Z,101563.47
2018-12-17T04:34:52.006Z,101566.41
2018-12-17T04:37:59.604Z,101574.45
2018-12-17T04:41:07.088Z,101586.05
2018-12-17T04:44:15.008Z,101583.97
2018-12-17T04:47:22.483Z,101584.80
2018-12-17T04:50:30.103Z,101579.66
2018-12-17T04:53:37.596Z,101580.19
2018-12-17T04:56:45.072Z,101592.50
2018-12-17T05:00:08.584Z,101594.62
2018-12-17T05:03:16.167Z,101605.81
2018-12-17T05:06:23.641Z,101616.87
2018-12-17T05:09:31.672Z,101620.31
2018-12-17T05:12:39.140Z,101625.53
2018-12-17T05:16:02.030Z,101630.16
2018-12-17T05:19:10.849Z,101632.25
2018-12-17T05:22:34.416Z,101636.90
2018-12-17T05:25:56.780Z,101644.65
2018-12-17T05:29:21.643Z,101646.38
2018-12-17T05:32:28.840Z,101654.83
2018-12-17T05:35:37.182Z,101648.88
2018-12-17T05:38:44.819Z,101654.05
2018-12-17T05:41:52.644Z,101655.77
2018-12-17T05:45:15.552Z,101653.69
2018-12-17T05:48:38.546Z,101662.20
2018-12-17T05:52:00.957Z,101668.66
2018-12-17T05:55:23.808Z,101669.98
2018-12-17T05:58:31.539Z,101666.96
2018-12-17T06:01:39.108Z,101671.53
2018-12-17T06:04:46.607Z,101671.90
2018-12-17T06:07:54.293Z,101672.02
2018-12-17T06:11:01.912Z,101671.20
2018-12-17T06:14:09.428Z,101678.05
2018-12-17T06:17:17.095Z,101681.00
2018-12-17T06:20:39.394Z,101683.99
2018-12-17T06:23:46.977Z,101690.05
2018-12-17T06:26:54.549Z,101693.84
2018-12-17T06:30:02.085Z,101701.09
2018-12-17T06:33:15.470Z,101699.84
2018-12-17T06:36:19.693Z,101704.62
2018-12-17T06:39:27.244Z,101709.74
2018-12-17T06:42:46.680Z,101713.55
2018-12-17T06:46:06.669Z,101719.97
2018-12-17T06:49:29.404Z,101717.30
2018-12-17T06:52:36.915Z,101721.59
2018-12-17T06:55:44.543Z,101724.23
2018-12-17T06:58:52.461Z,101730.21
2018-12-17T07:02:15.831Z,101734.98
2018-12-17T07:05:23.397Z,101734.58
2018-12-17T07:08:30.963Z,101730.73
2018-12-17T07:11:38.508Z,101739.28
2018-12-17T07:15:02.348Z,101741.42
2018-12-17T07:18:10.489Z,101750.75
2018-12-17T07:21:30.072Z,101750.41
2018-12-17T07:24:50.140Z,101755.10
2018-12-17T07:27:57.640Z,101758.02
2018-12-17T07:31:05.258Z,101753.28
2018-12-17T07:34:13.683Z,101759.66
2018-12-17T07:37:21.609Z,101763.52
2018-12-17T07:40:29.193Z,101753.34
2018-12-17T07:43:48.545Z,101755.41
2018-12-17T07:46:56.168Z,101767.72
2018-12-17T07:50:03.875Z,101767.84
2018-12-17T07:53:23.430Z,101770.89
2018-12-17T07:56:45.872Z,101779.92
2018-12-17T08:00:08.044Z,101779.08
2018-12-17T08:03:15.546Z,101788.47
2018-12-17T08:06:24.649Z,101793.23
2018-12-17T08:09:32.540Z,101796.68
2018-12-17T08:19:29.008Z,101810.84
2018-12-17T08:22:37.512Z,101808.70
2018-12-17T08:29:03.820Z,101813.00
2018-12-17T08:32:11.549Z,101818.14
2018-12-17T08:35:31.698Z,101818.55
2018-12-17T08:38:39.216Z,101819.38
2018-12-17T08:41:46.912Z,101822.84
2018-12-17T08:44:54.797Z,101827.17
2018-12-17T08:48:03.056Z,101831.02
2018-12-17T08:51:10.732Z,101834.46
2018-12-17T08:54:18.241Z,101832.27
2018-12-17T08:57:25.840Z,101828.36
2018-12-17T09:00:33.416Z,101826.20
2018-12-17T09:03:41.632Z,101821.48
2018-12-17T09:06:49.346Z,101826.25
2018-12-17T09:09:56.846Z,101837.83
2018-12-17T09:13:20.935Z,101837.40
2018-12-17T09:16:44.693Z,101844.66
2018-12-17T09:20:10.161Z,101846.81
2018-12-17T09:23:17.724Z,101849.36
2018-12-17T09:26:25.200Z,101843.39
2018-12-17T09:29:32.997Z,101849.39
2018-12-17T09:32:40.488Z,101858.80
2018-12-17T09:35:48.036Z,101861.33
2018-12-17T09:39:10.756Z,101862.64
2018-12-17T09:42:18.275Z,101860.97
2018-12-17T09:45:25.772Z,101864.03
2018-12-17T09:48:33.364Z,101860.58
2018-12-17T09:51:40.854Z,101864.92
2018-12-17T09:55:02.300Z,101867.43
2018-12-17T09:58:28.016Z,101867.86
2018-12-17T10:01:49.459Z,101863.05
2018-12-17T10:04:57.033Z,101861.73
2018-12-17T10:08:05.071Z,101854.48
2018-12-17T10:11:12.724Z,101860.96
2018-12-17T10:14:20.236Z,101859.73
2018-12-17T10:17:27.840Z,101855.04
2018-12-17T10:20:50.293Z,101851.19
2018-12-17T10:24:14.676Z,101852.91
2018-12-17T10:27:22.261Z,101861.06
2018-12-17T10:30:32.686Z,101857.64
2018-12-17T10:33:39.320Z,101864.90
2018-12-17T10:37:01.948Z,101859.78
2018-12-17T10:40:23.188Z,101852.52
2018-12-17T10:43:48.896Z,101849.08
2018-12-17T10:47:08.560Z,101851.22
2018-12-17T10:50:15.991Z,101861.05
2018-12-17T10:53:23.468Z,101855.50
2018-12-17T10:56:30.992Z,101858.94
2018-12-17T10:59:38.584Z,101859.34
2018-12-17T11:02:46.324Z,101856.35
2018-12-17T11:05:55.192Z,101851.65
2018-12-17T11:09:02.979Z,101854.63
2018-12-17T11:12:10.632Z,101850.78
2018-12-17T11:15:18.228Z,101851.64
2018-12-17T11:18:39.880Z,101843.49
2018-12-17T11:21:47.852Z,101840.07
2018-12-17T11:24:55.556Z,101832.78
2018-12-17T11:28:15.668Z,101832.81
2018-12-17T11:31:39.748Z,101840.09
2018-12-17T11:34:47.379Z,101835.80
2018-12-17T11:37:54.948Z,101835.78
2018-12-17T11:41:02.540Z,101837.09
2018-12-17T11:44:10.254Z,101838.79
2018-12-17T11:47:17.866Z,101846.48
2018-12-17T11:50:25.428Z,101834.09
2018-12-17T11:53:53.292Z,101825.95
2018-12-17T11:58:03.681Z,101834.94
2018-12-17T12:01:12.487Z,101836.66
2018-12-17T12:04:20.613Z,101832.38
2018-12-17T12:07:28.577Z,101828.93
2018-12-17T12:10:51.308Z,101826.80
2018-12-17T12:14:12.491Z,101824.67
2018-12-17T12:17:39.836Z,101824.66
2018-12-17T12:21:01.428Z,101819.08
2018-12-17T12:24:09.417Z,101816.09
2018-12-17T12:27:17.348Z,101839.19
2018-12-17T12:30:37.422Z,101847.77
2018-12-17T12:34:01.332Z,101849.90
2018-12-17T12:37:24.743Z,101849.86
2018-12-17T12:40:33.222Z,101853.72
2018-12-17T12:43:41.205Z,101858.84
2018-12-17T12:46:48.720Z,101859.69
2018-12-17T12:49:56.401Z,101863.09
2018-12-17T12:53:03.975Z,101855.88
2018-12-17T12:56:11.505Z,101857.16
2018-12-17T12:59:19.366Z,101855.45
2018-12-17T13:02:26.854Z,101863.61
2018-12-17T13:05:47.492Z,101867.87
2018-12-17T13:09:09.436Z,101862.70
2018-12-17T13:12:30.353Z,101866.12
2018-12-17T13:15:37.973Z,101870.40
2018-12-17T13:18:45.727Z,101866.59
2018-12-17T13:22:12.885Z,101863.58
2018-12-17T13:25:41.823Z,101869.20
2018-12-17T13:28:49.328Z,101872.65
2018-12-17T13:31:57.316Z,101873.89
2018-12-17T13:35:05.085Z,101872.61
2018-12-17T13:38:13.316Z,101874.77
2018-12-17T13:41:20.780Z,101873.88
2018-12-17T13:44:49.536Z,101875.19
2018-12-17T13:47:57.092Z,101873.45
2018-12-17T13:51:10.232Z,101873.86
2018-12-17T13:54:18.252Z,101881.59
2018-12-17T13:57:42.629Z,101876.42
2018-12-17T14:01:03.061Z,101884.19
2018-12-17T14:04:10.738Z,101891.89
2018-12-17T14:07:18.372Z,101880.30
2018-12-17T14:10:58.577Z,101885.45
2018-12-17T14:14:06.219Z,101891.05
2018-12-17T14:17:18.844Z,101895.28
2018-12-17T14:20:55.512Z,101894.84
2018-12-17T14:24:03.912Z,101896.59
2018-12-17T14:27:11.513Z,101908.19
2018-12-17T14:30:19.104Z,101909.48
2018-12-17T14:33:26.599Z,101906.89
2018-12-17T14:36:47.091Z,101907.33
2018-12-17T14:40:14.159Z,101898.30
2018-12-17T14:43:21.664Z,101898.75
2018-12-17T14:46:33.745Z,101901.32
2018-12-17T14:49:41.670Z,101907.74
2018-12-17T14:52:49.145Z,101911.60
2018-12-17T14:56:15.507Z,101916.75
2018-12-17T14:59:23.853Z,101918.05
2018-12-17T15:02:31.713Z,101926.20
2018-12-17T15:05:39.324Z,101927.06
2018-12-17T15:08:59.726Z,101928.34
2018-12-17T15:12:08.225Z,101933.50
2018-12-17T15:15:29.802Z,101943.78
2018-12-17T15:18:51.122Z,101939.48
2018-12-17T15:22:17.052Z,101943.77
2018-12-17T15:25:24.648Z,101945.91
2018-12-17T15:28:32.204Z,101948.06
2018-12-17T15:31:43.037Z,101947.19
2018-12-17T15:34:49.264Z,101949.34
2018-12-17T15:37:57.252Z,101959.65
2018-12-17T15:41:04.676Z,101960.06
2018-12-17T15:44:28.954Z,101965.20
2018-12-17T15:47:37.148Z,101965.64
2018-12-17T15:51:01.743Z,101964.35
2018-12-17T15:54:09.372Z,101962.64
2018-12-17T15:57:16.944Z,101969.51
2018-12-17T16:00:24.449Z,101978.53
2018-12-17T16:03:31.917Z,101978.10
2018-12-17T16:06:53.000Z,101974.22
2018-12-17T16:10:00.570Z,101979.36
2018-12-17T16:13:08.242Z,101978.06
2018-12-17T16:16:31.352Z,101978.48
2018-12-17T16:19:38.940Z,101984.08
2018-12-17T16:22:46.516Z,101983.66
2018-12-17T16:25:54.246Z,101984.94
2018-12-17T16:29:01.970Z,101976.37
2018-12-17T16:32:09.516Z,101975.48
2018-12-17T16:35:17.136Z,101982.81
2018-12-17T16:38:40.381Z,101984.09
2018-12-17T16:41:47.900Z,101986.66
2018-12-17T16:44:55.539Z,101985.81
2018-12-17T16:48:03.380Z,101996.10
2018-12-17T16:51:11.112Z,102003.37
2018-12-17T16:54:18.589Z,102002.11
2018-12-17T16:57:26.124Z,102015.82
2018-12-17T17:00:33.615Z,102016.67
2018-12-17T17:03:55.976Z,102017.95
2018-12-17T17:07:18.800Z,102024.41
2018-12-17T17:10:26.595Z,102021.81
2018-12-17T17:13:34.211Z,102019.25
2018-12-17T17:16:54.949Z,102024.38
2018-12-17T17:20:02.480Z,102023.98
2018-12-17T17:23:10.000Z,102027.83
2018-12-17T17:26:17.507Z,102038.11
2018-12-17T17:29:44.634Z,102035.97
2018-12-17T17:33:07.699Z,102038.12
2018-12-17T17:36:15.315Z,102036.80
2018-12-17T17:39:22.892Z,102038.11
2018-12-17T17:42:42.084Z,102041.95
2018-12-17T17:45:49.696Z,102053.56
2018-12-17T17:48:57.246Z,102053.14
2018-12-17T17:52:16.976Z,102052.25
2018-12-17T17:55:39.804Z,102050.56
2018-12-17T17:58:48.581Z,102053.15
2018-12-17T18:01:56.596Z,102048.40
2018-12-17T18:05:04.523Z,102052.70
2018-12-17T18:08:11.967Z,102054.84
2018-12-17T18:11:19.458Z,102053.56
2018-12-17T18:14:27.295Z,102058.28
2018-12-17T18:17:52.697Z,102053.14
2018-12-17T18:21:18.792Z,102058.27
2018-12-17T18:24:44.243Z,102054.01
2018-12-17T18:28:08.019Z,102062.58
2018-12-17T18:31:29.087Z,102059.98
2018-12-17T18:34:36.575Z,102059.97
2018-12-17T18:37:44.150Z,102071.56
2018-12-17T18:40:52.196Z,102066.87
2018-12-17T18:44:17.754Z,102070.71
2018-12-17T18:47:44.908Z,102069.37
2018-12-17T18:51:07.750Z,102067.22
2018-12-17T18:54:26.222Z,102071.96
2018-12-17T18:57:45.289Z,102077.11
2018-12-17T19:00:53.212Z,102068.13
2018-12-17T19:04:00.808Z,102067.69
2018-12-17T19:07:08.472Z,102068.99
2018-12-17T19:10:15.974Z,102074.13
2018-12-17T19:13:23.848Z,102081.00
2018-12-17T19:16:31.375Z,102078.43
2018-12-17T19:20:00.530Z,102079.64
2018-12-17T19:23:08.196Z,102081.00
2018-12-17T19:26:15.783Z,102087.02
2018-12-17T19:29:23.297Z,102087.84
2018-12-17T19:32:30.880Z,102097.25
2018-12-17T19:35:48.332Z,102095.97
2018-12-17T19:38:55.841Z,102092.11
2018-12-17T19:42:03.657Z,102091.30
2018-12-17T19:45:11.409Z,102095.16
2018-12-17T19:48:37.428Z,102101.61
2018-12-17T19:51:44.977Z,102099.46
2018-12-17T19:54:52.471Z,102107.61
2018-12-17T19:57:59.954Z,102097.70
2018-12-17T20:01:07.509Z,102096.44
2018-12-17T20:04:30.488Z,102094.70
2018-12-17T20:07:38.141Z,102107.58
2018-12-17T20:10:46.532Z,102117.02
2018-12-17T20:13:54.120Z,102109.75
2018-12-17T20:17:01.629Z,102114.05
2018-12-17T20:20:10.111Z,102112.73
2018-12-17T20:23:17.615Z,102118.34
2018-12-17T20:26:25.150Z,102117.05
2018-12-17T20:29:32.736Z,102125.66
2018-12-17T20:32:53.716Z,102114.50
2018-12-17T20:36:13.432Z,102117.50
2018-12-17T20:39:20.968Z,102117.48
2018-12-17T20:42:29.287Z,102125.20
2018-12-17T20:45:37.252Z,102126.91
2018-12-17T20:48:45.142Z,102136.75
2018-12-17T20:52:04.139Z,102129.03
2018-12-17T20:58:31.161Z,102132.52
2018-12-17T21:01:51.024Z,102132.53
2018-12-17T21:04:58.496Z,102132.52
2018-12-17T21:08:06.083Z,102126.94
2018-12-17T21:14:32.560Z,102126.49
2018-12-17T21:17:59.992Z,102136.83
2018-12-17T21:21:20.510Z,102132.52
2018-12-17T21:24:40.585Z,102127.38
2018-12-17T21:27:48.389Z,102134.69
2018-12-17T21:34:15.931Z,102130.80
2018-12-17T21:37:35.497Z,102129.09
2018-12-17T21:40:57.904Z,102120.52
2018-12-17T21:44:05.747Z,102118.78
2018-12-17T21:47:13.380Z,102114.08
2018-12-17T21:50:35.045Z,102114.52
2018-12-17T21:53:42.556Z,102121.36
2018-12-17T22:00:10.671Z,102121.80
2018-12-17T22:03:18.287Z,102124.80
2018-12-17T22:06:41.012Z,102120.94
2018-12-17T22:10:03.824Z,102128.66
2018-12-17T22:13:11.369Z,102135.11
2018-12-17T22:16:18.936Z,102133.38
2018-12-17T22:19:26.559Z,102136.81
2018-12-17T22:22:47.696Z,102138.96
2018-12-17T22:25:57.383Z,102150.58
2018-12-17T22:29:17.470Z,102156.16
2018-12-17T22:32:37.102Z,102158.70
2018-12-17T22:35:59.741Z,102155.27
2018-12-17T22:39:09.372Z,102163.02
2018-12-17T22:42:17.404Z,102158.28
2018-12-17T22:45:25.015Z,102168.59
2018-12-17T22:48:32.915Z,102163.41
2018-12-17T22:51:40.387Z,102159.57
2018-12-17T22:55:00.397Z,102161.30
2018-12-17T22:58:20.165Z,102166.02
2018-12-17T23:01:27.667Z,102164.73
2018-12-17T23:04:35.516Z,102165.59
2018-12-17T23:07:43.369Z,102162.13
2018-12-17T23:11:07.972Z,102166.00
2018-12-17T23:14:45.477Z,102158.27
2018-12-17T23:17:52.425Z,102155.70
2018-12-17T23:21:00.480Z,102157.84
2018-12-17T23:24:08.591Z,102154.41
2018-12-17T23:27:16.170Z,102155.66
2018-12-17T23:30:24.708Z,102147.48
2018-12-17T23:33:32.969Z,102147.92
2018-12-17T23:36:41.035Z,102153.06
2018-12-17T23:39:48.969Z,102155.59
2018-12-17T23:42:56.875Z,102149.98
2018-12-17T23:46:04.552Z,102163.26
2018-12-17T23:49:25.132Z,102161.98
2018-12-17T23:52:32.852Z,102159.80
2018-12-17T23:55:40.451Z,102161.08
2018-12-17T23:58:48.647Z,102163.23
